This is the latest recevied weather packets stored in our database for station/object F4GQK-13. If no packets are shown the sender has not sent any weather packets the latest 10 day(s).
| Time | Temp. | Humidity | Pressure | Rain* | Wind** | Luminosity | Snow |
|---|---|---|---|---|---|---|---|
| 1777885204 | 13.33° C | 98% | 1014.1 hPa | 12.7 mm | - | 67 W/m² | - |
| 1777884905 | 13.33° C | 98% | 1014 hPa | 10.16 mm | - | 61 W/m² | - |
| 1777884605 | 13.33° C | 98% | 1014.2 hPa | 7.87 mm | - | 56 W/m² | - |
| 1777884305 | 13.33° C | 98% | 1014.2 hPa | 4.83 mm | - | 40 W/m² | - |
| 1777884005 | 13.89° C | 98% | 1014 hPa | 2.79 mm | - | 20 W/m² | - |
| 1777883703 | 13.89° C | 98% | 1014 hPa | 2.29 mm | - | 18 W/m² | - |
| 1777883405 | 13.33° C | 98% | 1014 hPa | 2.29 mm | - | 24 W/m² | - |
| 1777883105 | 13.89° C | 98% | 1013.9 hPa | 2.54 mm | - | 42 W/m² | - |
| 1777882805 | 13.89° C | 98% | 1014 hPa | 2.54 mm | - | 48 W/m² | - |
| 1777882505 | 13.89° C | 98% | 1014 hPa | 2.03 mm | - | 48 W/m² | - |
| 1777882205 | 13.89° C | 98% | 1014 hPa | 1.78 mm | - | 43 W/m² | - |
| 1777881904 | 13.89° C | 97% | 1014.1 hPa | 1.27 mm | - | 46 W/m² | - |
| 1777881605 | 13.89° C | 98% | 1013.8 hPa | 0.76 mm | - | 31 W/m² | - |
| 1777881304 | 13.89° C | 98% | 1013.8 hPa | 0.51 mm | - | 21 W/m² | - |
| 1777881005 | 13.89° C | 98% | 1013.9 hPa | 0.51 mm | - | 25 W/m² | - |
| 1777880705 | 13.89° C | 98% | 1013.7 hPa | 0.51 mm | - | 43 W/m² | - |
| 1777880405 | 13.89° C | 98% | 1013.8 hPa | 0.51 mm | - | 50 W/m² | - |
| 1777880103 | 13.89° C | 98% | 1013.8 hPa | 0.25 mm | - | 37 W/m² | - |
| 1777879805 | 13.89° C | 98% | 1013.6 hPa | 0.25 mm | - | 36 W/m² | - |
| 1777879503 | 13.89° C | 98% | 1013.8 hPa | 0 mm | - | 33 W/m² | - |
| 1777879205 | 13.89° C | 98% | 1013.6 hPa | 0 mm | - | 31 W/m² | - |
| 1777878904 | 13.89° C | 98% | 1013.7 hPa | 0 mm | - | 20 W/m² | - |
| 1777878605 | 13.89° C | 98% | 1013.6 hPa | 0 mm | - | 20 W/m² | - |
| 1777878305 | 13.89° C | 98% | 1013.5 hPa | 0 mm | - | 35 W/m² | - |
| 1777878004 | 13.89° C | 98% | 1013.5 hPa | 0 mm | - | 33 W/m² | - |
* Rain latest hour (hover to see other rain measurements)
** Current wind speed in m/s (hover to see current wind gust speed)